Time,TemperatureF,DewpointF,PressureIn,WindDirection,WindDirectionDegrees,WindSpeedMPH,WindSpeedGustMPH,Humidity,HourlyPrecipIn,Conditions,Clouds,dailyrainin,SoftwareType,DateUTC
2014-01-26 00:09:00,5.9,2.9,29.50,East,90,2.7,-999.0,87,-99.99,,,0.00,Acu-Link.com,2014-01-26 06:09:00,
2014-01-26 00:24:00,5.9,2.9,29.48,WSW,247,0.0,-999.0,87,-99.99,,,0.00,Acu-Link.com,2014-01-26 06:24:00,
2014-01-26 00:39:00,5.7,2.7,29.47,SSE,157,2.2,-999.0,87,-99.99,,,0.00,Acu-Link.com,2014-01-26 06:39:00,
2014-01-26 00:54:00,6.1,3.1,29.45,ENE,67,0.0,-999.0,87,-99.99,,,0.00,Acu-Link.com,2014-01-26 06:54:00,
2014-01-26 01:09:00,6.3,3.3,29.44,WNW,292,2.7,-999.0,87,-99.99,,,0.00,Acu-Link.com,2014-01-26 07:09:00,
2014-01-26 01:25:00,6.4,3.6,29.42,SSE,157,2.7,-999.0,88,-99.99,,,0.00,Acu-Link.com,2014-01-26 07:25:00,
2014-01-26 01:40:00,6.6,4.1,29.40,SE,135,3.7,-999.0,89,-99.99,,,0.00,Acu-Link.com,2014-01-26 07:40:00,
2014-01-26 01:55:00,6.6,4.1,29.39,SSE,157,0.0,-999.0,89,-99.99,,,0.00,Acu-Link.com,2014-01-26 07:55:00,
2014-01-26 02:10:00,6.8,4.3,29.40,SSW,202,1.7,-999.0,89,-99.99,,,0.00,Acu-Link.com,2014-01-26 08:10:00,
2014-01-26 02:25:00,7.0,4.5,29.38,North,0,2.2,-999.0,89,-99.99,,,0.00,Acu-Link.com,2014-01-26 08:25:00,
2014-01-26 02:40:00,7.0,4.5,29.39,SE,135,1.7,-999.0,89,-99.99,,,0.00,Acu-Link.com,2014-01-26 08:40:00,
2014-01-26 02:55:00,7.2,4.7,29.38,East,90,2.7,-999.0,89,-99.99,,,0.00,Acu-Link.com,2014-01-26 08:55:00,
2014-01-26 03:10:00,7.2,4.7,29.37,ESE,112,2.2,-999.0,89,-99.99,,,0.00,Acu-Link.com,2014-01-26 09:10:00,
2014-01-26 03:25:00,7.2,4.7,29.38,ESE,112,1.1,-999.0,89,-99.99,,,0.00,Acu-Link.com,2014-01-26 09:25:00,
2014-01-26 03:41:00,7.0,4.2,29.37,ESE,112,0.0,-999.0,88,-99.99,,,0.00,Acu-Link.com,2014-01-26 09:41:00,
2014-01-26 03:56:00,6.6,3.8,29.36,West,270,1.7,-999.0,88,-99.99,,,0.00,Acu-Link.com,2014-01-26 09:56:00,
2014-01-26 04:11:00,6.6,3.8,29.36,SE,135,2.7,-999.0,88,-99.99,,,0.00,Acu-Link.com,2014-01-26 10:11:00,
2014-01-26 04:26:00,6.4,3.6,29.36,WNW,292,2.7,-999.0,88,-99.99,,,0.00,Acu-Link.com,2014-01-26 10:26:00,
2014-01-26 04:41:00,6.4,3.6,29.38,NNW,337,1.1,-999.0,88,-99.99,,,0.00,Acu-Link.com,2014-01-26 10:41:00,
2014-01-26 04:56:00,6.4,3.6,29.37,ESE,112,1.7,-999.0,88,-99.99,,,0.00,Acu-Link.com,2014-01-26 10:56:00,
2014-01-26 05:11:00,6.4,3.6,29.35,SE,135,2.2,-999.0,88,-99.99,,,0.00,Acu-Link.com,2014-01-26 11:11:00,
2014-01-26 05:26:00,6.4,3.6,29.35,East,90,3.2,-999.0,88,-99.99,,,0.00,Acu-Link.com,2014-01-26 11:26:00,
2014-01-26 05:41:00,6.4,3.6,29.35,ENE,67,1.1,-999.0,88,-99.99,,,0.00,Acu-Link.com,2014-01-26 11:41:00,
2014-01-26 05:57:00,6.4,3.6,29.35,SSE,157,1.7,-999.0,88,-99.99,,,0.00,Acu-Link.com,2014-01-26 11:57:00,
2014-01-26 06:12:00,6.4,3.6,29.34,SE,135,0.0,-999.0,88,-99.99,,,0.00,Acu-Link.com,2014-01-26 12:12:00,
2014-01-26 06:27:00,6.4,3.6,29.34,North,0,2.2,-999.0,88,-99.99,,,0.00,Acu-Link.com,2014-01-26 12:27:00,
2014-01-26 06:42:00,6.6,3.8,29.37,SE,135,0.0,-999.0,88,-99.99,,,0.00,Acu-Link.com,2014-01-26 12:42:00,
2014-01-26 06:57:00,6.8,4.0,29.37,ESE,112,0.0,-999.0,88,-99.99,,,0.00,Acu-Link.com,2014-01-26 12:57:00,
2014-01-26 07:12:00,7.0,4.2,29.36,ESE,112,0.0,-999.0,88,-99.99,,,0.00,Acu-Link.com,2014-01-26 13:12:00,
2014-01-26 07:28:00,7.0,4.2,29.36,SSE,157,0.0,-999.0,88,-99.99,,,0.00,Acu-Link.com,2014-01-26 13:28:00,
2014-01-26 07:43:00,7.5,4.7,29.37,ENE,67,1.1,-999.0,88,-99.99,,,0.00,Acu-Link.com,2014-01-26 13:43:00,
2014-01-26 07:58:00,8.1,5.3,29.37,ESE,112,0.0,-999.0,88,-99.99,,,0.00,Acu-Link.com,2014-01-26 13:58:00,
2014-01-26 08:13:00,8.6,6.0,29.38,ESE,112,2.2,-999.0,89,-99.99,,,0.00,Acu-Link.com,2014-01-26 14:13:00,
2014-01-26 08:28:00,9.3,6.7,29.37,SSE,157,0.0,-999.0,89,-99.99,,,0.00,Acu-Link.com,2014-01-26 14:28:00,
2014-01-26 08:43:00,10.6,7.8,29.36,South,180,3.2,-999.0,88,-99.99,,,0.00,Acu-Link.com,2014-01-26 14:43:00,
2014-01-26 08:58:00,10.8,8.0,29.37,South,180,4.2,-999.0,88,-99.99,,,0.00,Acu-Link.com,2014-01-26 14:58:00,
2014-01-26 09:13:00,11.3,7.9,29.37,SE,135,4.7,-999.0,86,-99.99,,,0.00,Acu-Link.com,2014-01-26 15:13:00,
2014-01-26 09:28:00,11.8,8.4,29.36,West,270,2.7,-999.0,86,-99.99,,,0.00,Acu-Link.com,2014-01-26 15:28:00,
2014-01-26 09:44:00,12.9,8.7,29.36,NW,315,5.3,-999.0,83,-99.99,,,0.00,Acu-Link.com,2014-01-26 15:44:00,
2014-01-26 09:59:00,14.4,9.9,29.38,East,90,6.8,-999.0,82,-99.99,,,0.00,Acu-Link.com,2014-01-26 15:59:00,
2014-01-26 10:14:00,14.7,9.9,29.36,West,270,3.7,-999.0,81,-99.99,,,0.00,Acu-Link.com,2014-01-26 16:14:00,
2014-01-26 10:29:00,15.4,10.1,29.37,NE,45,6.3,-999.0,79,-99.99,,,0.00,Acu-Link.com,2014-01-26 16:29:00,
2014-01-26 10:44:00,15.8,10.5,29.40,ENE,67,4.7,-999.0,79,-99.99,,,0.00,Acu-Link.com,2014-01-26 16:44:00,
2014-01-26 10:59:00,16.0,10.4,29.40,ESE,112,4.2,-999.0,78,-99.99,,,0.00,Acu-Link.com,2014-01-26 16:59:00,
2014-01-26 11:14:00,16.2,10.3,29.40,NW,315,4.7,-999.0,77,-99.99,,,0.00,Acu-Link.com,2014-01-26 17:14:00,
2014-01-26 11:29:00,16.9,11.0,29.41,NE,45,3.7,-999.0,77,-99.99,,,0.00,Acu-Link.com,2014-01-26 17:29:00,
2014-01-26 11:44:00,17.8,11.5,29.39,ESE,112,3.2,-999.0,76,-99.99,,,0.00,Acu-Link.com,2014-01-26 17:44:00,
2014-01-26 11:59:00,18.0,12.0,29.40,NNW,337,4.2,-999.0,77,-99.99,,,0.00,Acu-Link.com,2014-01-26 17:59:00,
2014-01-26 12:15:00,18.5,11.9,29.40,East,90,5.3,-999.0,75,-99.99,,,0.00,Acu-Link.com,2014-01-26 18:15:00,
2014-01-26 12:30:00,17.6,10.1,29.40,NNE,22,4.2,-999.0,72,-99.99,,,0.00,Acu-Link.com,2014-01-26 18:30:00,
2014-01-26 12:45:00,18.3,10.2,29.39,SSE,157,5.3,-999.0,70,-99.99,,,0.00,Acu-Link.com,2014-01-26 18:45:00,
2014-01-26 13:00:00,16.7,9.0,29.39,SE,135,6.3,-999.0,71,-99.99,,,0.00,Acu-Link.com,2014-01-26 19:00:00,
2014-01-26 13:15:00,16.9,7.5,29.40,WNW,292,5.3,-999.0,66,-99.99,,,0.00,Acu-Link.com,2014-01-26 19:15:00,
2014-01-26 13:30:00,15.6,6.6,29.42,East,90,9.9,-999.0,67,-99.99,,,0.00,Acu-Link.com,2014-01-26 19:30:00,
2014-01-26 13:45:00,14.9,6.3,29.43,South,180,4.2,-999.0,68,-99.99,,,0.00,Acu-Link.com,2014-01-26 19:45:00,
2014-01-26 14:00:00,13.6,5.0,29.44,NW,315,10.4,-999.0,68,-99.99,,,0.00,Acu-Link.com,2014-01-26 20:00:00,
2014-01-26 14:15:00,13.6,4.7,29.45,SSW,202,5.8,-999.0,67,-99.99,,,0.00,Acu-Link.com,2014-01-26 20:15:00,
2014-01-26 14:31:00,13.6,3.7,29.45,South,180,10.9,-999.0,64,-99.99,,,0.00,Acu-Link.com,2014-01-26 20:31:00,
2014-01-26 14:46:00,11.8,1.7,29.47,East,90,4.7,-999.0,63,-99.99,,,0.00,Acu-Link.com,2014-01-26 20:46:00,
2014-01-26 15:01:00,10.0,0.6,29.49,NE,45,8.3,-999.0,65,-99.99,,,0.00,Acu-Link.com,2014-01-26 21:01:00,
2014-01-26 15:16:00,10.0,-0.4,29.51,East,90,8.3,-999.0,62,-99.99,,,0.00,Acu-Link.com,2014-01-26 21:16:00,
2014-01-26 15:31:00,9.0,-0.7,29.52,NNW,337,5.8,-999.0,64,-99.99,,,0.00,Acu-Link.com,2014-01-26 21:31:00,
2014-01-26 15:46:00,8.4,-2.2,29.53,West,270,11.4,-999.0,61,-99.99,,,0.00,Acu-Link.com,2014-01-26 21:46:00,
2014-01-26 16:01:00,6.4,-2.2,29.55,ESE,112,9.9,-999.0,67,-99.99,,,0.00,Acu-Link.com,2014-01-26 22:01:00,
2014-01-26 16:16:00,4.6,-3.3,29.56,North,0,6.8,-999.0,69,-99.99,,,0.00,Acu-Link.com,2014-01-26 22:16:00,
2014-01-26 16:32:00,3.7,-3.3,29.58,West,270,5.3,-999.0,72,-99.99,,,0.00,Acu-Link.com,2014-01-26 22:32:00,
2014-01-26 16:47:00,2.8,-3.9,29.61,South,180,9.4,-999.0,73,-99.99,,,0.00,Acu-Link.com,2014-01-26 22:47:00,
2014-01-26 17:02:00,1.9,-5.3,29.62,ESE,112,8.3,-999.0,71,-99.99,,,0.00,Acu-Link.com,2014-01-26 23:02:00,
2014-01-26 17:17:00,1.2,-5.7,29.65,West,270,4.7,-999.0,72,-99.99,,,0.00,Acu-Link.com,2014-01-26 23:17:00,
2014-01-26 17:32:00,1.0,-4.8,29.67,SSE,157,6.3,-999.0,76,-99.99,,,0.00,Acu-Link.com,2014-01-26 23:32:00,
2014-01-26 17:47:00,0.7,-6.2,29.69,East,90,9.9,-999.0,72,-99.99,,,0.00,Acu-Link.com,2014-01-26 23:47:00,
2014-01-26 18:02:00,0.5,-6.6,29.71,North,0,6.8,-999.0,71,-99.99,,,0.00,Acu-Link.com,2014-01-27 00:02:00,
2014-01-26 18:17:00,0.1,-6.7,29.72,NNE,22,6.3,-999.0,72,-99.99,,,0.00,Acu-Link.com,2014-01-27 00:17:00,
2014-01-26 18:32:00,-0.2,-7.0,29.74,ESE,112,7.3,-999.0,72,-99.99,,,0.00,Acu-Link.com,2014-01-27 00:32:00,
2014-01-26 18:48:00,-0.8,-8.2,29.76,South,180,10.9,-999.0,70,-99.99,,,0.00,Acu-Link.com,2014-01-27 00:48:00,
2014-01-26 19:03:00,-1.3,-9.0,29.77,ESE,112,8.3,-999.0,69,-99.99,,,0.00,Acu-Link.com,2014-01-27 01:03:00,
2014-01-26 19:18:00,-1.5,-9.2,29.79,NNE,22,5.3,-999.0,69,-99.99,,,0.00,Acu-Link.com,2014-01-27 01:18:00,
2014-01-26 19:33:00,-2.0,-9.3,29.80,NW,315,6.3,-999.0,70,-99.99,,,0.00,Acu-Link.com,2014-01-27 01:33:00,
2014-01-26 19:48:00,-2.2,-9.8,29.82,NNW,337,8.3,-999.0,69,-99.99,,,0.00,Acu-Link.com,2014-01-27 01:48:00,
2014-01-26 20:03:00,-2.4,-10.0,29.83,NE,45,7.3,-999.0,69,-99.99,,,0.00,Acu-Link.com,2014-01-27 02:03:00,
2014-01-26 20:33:00,-2.7,-10.3,29.86,NE,45,4.2,-999.0,69,-99.99,,,0.00,Acu-Link.com,2014-01-27 02:33:00,
2014-01-26 20:48:00,-3.1,-10.4,29.88,West,270,3.7,-999.0,70,-99.99,,,0.00,Acu-Link.com,2014-01-27 02:48:00,
2014-01-26 21:04:00,-3.5,-10.8,29.90,North,0,6.8,-999.0,70,-99.99,,,0.00,Acu-Link.com,2014-01-27 03:04:00,
2014-01-26 21:19:00,-3.8,-11.1,29.92,SSW,202,3.2,-999.0,70,-99.99,,,0.00,Acu-Link.com,2014-01-27 03:19:00,
2014-01-26 21:34:00,-4.0,-11.3,29.94,NE,45,6.3,-999.0,70,-99.99,,,0.00,Acu-Link.com,2014-01-27 03:34:00,
2014-01-26 21:49:00,-4.4,-11.4,29.96,SSE,157,4.2,-999.0,71,-99.99,,,0.00,Acu-Link.com,2014-01-27 03:49:00,
2014-01-26 22:04:00,-4.9,-11.9,29.96,NE,45,6.3,-999.0,71,-99.99,,,0.00,Acu-Link.com,2014-01-27 04:04:00,
2014-01-26 22:19:00,-5.1,-12.1,29.97,ESE,112,3.7,-999.0,71,-99.99,,,0.00,Acu-Link.com,2014-01-27 04:19:00,
2014-01-26 22:34:00,-5.6,-12.5,29.98,ESE,112,4.2,-999.0,71,-99.99,,,0.00,Acu-Link.com,2014-01-27 04:34:00,
2014-01-26 22:49:00,-6.2,-13.1,29.99,ESE,112,4.2,-999.0,71,-99.99,,,0.00,Acu-Link.com,2014-01-27 04:49:00,
2014-01-26 23:04:00,-6.7,-13.6,30.00,NNW,337,4.2,-999.0,71,-99.99,,,0.00,Acu-Link.com,2014-01-27 05:04:00,
2014-01-26 23:20:00,-7.2,-14.1,30.01,ESE,112,2.7,-999.0,71,-99.99,,,0.00,Acu-Link.com,2014-01-27 05:20:00,
2014-01-26 23:35:00,-7.6,-14.5,30.03,NW,315,6.8,-999.0,71,-99.99,,,0.00,Acu-Link.com,2014-01-27 05:35:00,
2014-01-26 23:50:00,-8.3,-15.1,30.04,ESE,112,3.7,-999.0,71,-99.99,,,0.00,Acu-Link.com,2014-01-27 05:50:00,